Time;durP1;ratioP1;P1;durP2;ratioP2;P2;SDS_P1;SDS_P2;PMS_P1;PMS_P2;Temp;Humidity;BMP_temperature;BMP_pressure;BME280_temperature;BME280_humidity;BME280_pressure;Samples;Min_cycle;Max_cycle;Signal;HPM_P1;HPM_P2
2023/12/03 00:00:00;;;;;;;30.80;16.00;;;;;;;-0.14;91.34;97768.79;106959;1253;1002938;-39
2023/12/03 00:02:27;;;;;;;37.20;15.90;;;;;;;-0.18;91.55;97771.86;107635;1252;73446;-39
2023/12/03 00:04:54;;;;;;;35.50;16.40;;;;;;;-0.14;91.73;97774.27;107692;1255;66482;-39
2023/12/03 00:07:21;;;;;;;28.50;17.40;;;;;;;-0.08;91.51;97771.61;107660;1251;73254;-39
2023/12/03 00:09:48;;;;;;;35.90;16.30;;;;;;;-0.10;91.72;97766.90;107686;1252;59641;-39
2023/12/03 00:12:15;;;;;;;25.20;15.20;;;;;;;-0.09;91.98;97780.68;107812;1253;59357;-39
2023/12/03 00:14:42;;;;;;;31.00;16.10;;;;;;;-0.03;91.79;97780.84;107693;1251;73673;-39
2023/12/03 00:17:09;;;;;;;42.80;17.50;;;;;;;0.00;91.73;97788.55;107687;1251;67578;-39
2023/12/03 00:19:36;;;;;;;31.60;16.00;;;;;;;-0.01;91.85;97797.43;107668;1251;73299;-39
2023/12/03 00:22:03;;;;;;;31.10;15.70;;;;;;;0.01;91.98;97801.59;107640;1253;61195;-39
2023/12/03 00:24:29;;;;;;;28.10;16.50;;;;;;;0.07;91.84;97807.08;107677;1253;60244;-39
2023/12/03 00:26:58;;;;;;;30.30;16.90;;;;;;;0.09;91.80;97810.04;107635;1253;73701;-39
2023/12/03 00:29:25;;;;;;;28.00;16.50;;;;;;;0.09;91.90;97831.47;107659;1253;68120;-39
2023/12/03 00:31:52;;;;;;;25.10;16.30;;;;;;;0.16;91.90;97843.84;107657;1253;72308;-39
2023/12/03 00:34:18;;;;;;;28.50;16.50;;;;;;;0.27;91.59;97860.61;107682;1253;59478;-39
2023/12/03 00:36:45;;;;;;;25.20;16.10;;;;;;;0.36;91.63;97878.49;107735;1253;60112;-39
2023/12/03 00:39:12;;;;;;;28.20;16.50;;;;;;;0.43;92.32;97885.73;107655;1253;73423;-39
2023/12/03 00:41:39;;;;;;;26.00;16.40;;;;;;;0.52;92.32;97898.16;107651;1252;67002;-39
2023/12/03 00:44:05;;;;;;;24.70;15.10;;;;;;;0.67;92.10;97913.52;107621;1253;73165;-39
2023/12/03 00:46:32;;;;;;;23.90;15.10;;;;;;;0.83;91.77;97910.16;107675;1252;59573;-39
2023/12/03 00:48:59;;;;;;;23.90;15.20;;;;;;;0.93;91.62;97904.57;107669;1253;60363;-39
2023/12/03 00:51:26;;;;;;;26.40;15.40;;;;;;;0.99;91.39;97910.19;107721;1252;73116;-39
2023/12/03 00:53:52;;;;;;;25.10;16.50;;;;;;;1.03;91.39;97919.15;107740;1256;67978;-40
2023/12/03 00:56:19;;;;;;;26.70;15.30;;;;;;;1.10;91.50;97908.56;107642;1252;73230;-39
2023/12/03 00:58:46;;;;;;;24.00;14.90;;;;;;;1.24;90.84;97892.16;107628;1253;61169;-39
2023/12/03 01:01:12;;;;;;;25.60;15.40;;;;;;;1.33;89.88;97863.66;107663;1254;60701;-39
2023/12/03 01:03:39;;;;;;;28.20;15.80;;;;;;;1.27;89.07;97855.95;107657;1256;74347;-40
2023/12/03 01:06:07;;;;;;;25.90;15.20;;;;;;;1.17;88.74;97857.77;107710;1256;67928;-40
2023/12/03 01:08:34;;;;;;;23.10;15.20;;;;;;;1.10;88.34;97833.13;107624;1252;73394;-39
2023/12/03 01:11:04;;;;;;;22.00;14.50;;;;;;;1.09;87.82;97831.91;107630;1253;60979;-39
2023/12/03 01:13:31;;;;;;;24.10;14.70;;;;;;;1.10;87.69;97852.60;107699;1253;60296;-40
2023/12/03 01:15:58;;;;;;;24.70;15.20;;;;;;;1.10;88.03;97831.71;107641;1253;74180;-40
2023/12/03 01:18:24;;;;;;;24.10;14.60;;;;;;;1.08;87.75;97832.08;107654;1253;68292;-40
2023/12/03 01:20:52;;;;;;;27.90;14.40;;;;;;;1.04;87.47;97820.77;107630;1252;71969;-39
2023/12/03 01:23:18;;;;;;;25.90;15.60;;;;;;;1.04;86.86;97814.90;107633;1253;61118;-39
2023/12/03 01:25:45;;;;;;;22.30;14.60;;;;;;;0.98;86.84;97818.66;107625;1251;60451;-40
2023/12/03 01:28:13;;;;;;;26.00;15.80;;;;;;;0.91;86.89;97816.98;107656;1252;74124;-40
2023/12/03 01:30:39;;;;;;;24.00;14.70;;;;;;;0.85;87.17;97819.26;107643;1253;68173;-39
2023/12/03 01:33:06;;;;;;;22.80;14.80;;;;;;;0.91;87.16;97822.56;107639;1253;73285;-39
2023/12/03 01:35:33;;;;;;;21.50;14.80;;;;;;;0.99;87.25;97832.04;107652;1252;60325;-40
2023/12/03 01:38:02;;;;;;;22.10;15.10;;;;;;;1.03;87.47;97824.46;107702;1251;60434;-39
2023/12/03 01:40:29;;;;;;;24.60;16.30;;;;;;;1.05;87.43;97819.80;107622;1253;74301;-40
2023/12/03 01:42:56;;;;;;;23.00;13.20;;;;;;;1.07;87.56;97819.86;107662;1251;66892;-40
2023/12/03 01:45:23;;;;;;;21.60;14.50;;;;;;;1.15;87.25;97803.86;107636;1252;73083;-40
2023/12/03 01:47:49;;;;;;;23.00;15.00;;;;;;;1.23;86.83;97806.78;107662;1253;60324;-39
2023/12/03 01:50:16;;;;;;;24.10;15.20;;;;;;;1.25;86.59;97804.71;107662;1253;60442;-39
2023/12/03 01:52:43;;;;;;;25.70;14.60;;;;;;;1.25;86.49;97817.46;107575;1251;74167;-39
2023/12/03 01:55:12;;;;;;;22.60;14.50;;;;;;;1.24;86.67;97822.48;107642;1253;68190;-39
2023/12/03 01:57:39;;;;;;;21.90;14.40;;;;;;;1.27;86.61;97843.75;107669;1251;73313;-39
2023/12/03 02:00:08;;;;;;;23.10;14.90;;;;;;;1.34;86.12;97833.04;107474;1253;61190;-40
2023/12/03 02:02:39;;;;;;;20.50;13.90;;;;;;;1.43;85.83;97817.20;107679;1253;60909;-39
2023/12/03 02:05:06;;;;;;;20.40;14.10;;;;;;;1.47;85.63;97808.48;107673;1253;73827;-39
2023/12/03 02:07:33;;;;;;;22.30;15.40;;;;;;;1.49;85.64;97796.39;107637;1253;67904;-39
2023/12/03 02:10:00;;;;;;;24.10;15.60;;;;;;;1.49;85.44;97785.83;107561;1251;73189;-39
2023/12/03 02:12:27;;;;;;;21.30;14.60;;;;;;;1.47;85.01;97774.77;107716;1253;61489;-39
2023/12/03 02:14:54;;;;;;;23.10;14.50;;;;;;;1.48;84.54;97761.21;107646;1255;60356;-39
2023/12/03 02:17:20;;;;;;;28.30;15.40;;;;;;;1.46;84.30;97711.64;107638;1253;74342;-40
2023/12/03 02:19:47;;;;;;;24.60;15.50;;;;;;;1.33;84.12;97681.54;107644;1253;68125;-40
2023/12/03 02:22:14;;;;;;;23.60;14.80;;;;;;;1.18;84.35;97687.27;107640;1253;73243;-40
2023/12/03 02:24:41;;;;;;;26.30;14.30;;;;;;;1.09;84.66;97700.59;107647;1253;61094;-40
2023/12/03 02:27:07;;;;;;;21.30;14.40;;;;;;;1.09;84.84;97692.65;107642;1252;60425;-40
2023/12/03 02:29:34;;;;;;;21.50;14.70;;;;;;;1.04;84.89;97679.25;106870;1253;1003799;-40
2023/12/03 02:32:00;;;;;;;22.50;14.10;;;;;;;0.96;85.43;97672.39;107646;1253;68599;-40
2023/12/03 02:34:27;;;;;;;19.50;12.60;;;;;;;0.91;85.91;97653.94;107614;1253;73155;-39
2023/12/03 02:36:54;;;;;;;17.90;12.60;;;;;;;0.90;85.94;97672.34;107605;1253;60962;-39
2023/12/03 02:39:21;;;;;;;22.70;13.70;;;;;;;0.87;85.96;97682.40;107626;1252;60473;-40
2023/12/03 02:41:48;;;;;;;21.30;13.50;;;;;;;0.79;86.45;97689.52;107742;1253;73806;-39
2023/12/03 02:44:14;;;;;;;19.50;13.10;;;;;;;0.78;86.74;97727.88;107633;1252;67968;-39
2023/12/03 02:46:41;;;;;;;19.90;12.90;;;;;;;0.86;86.81;97782.84;107639;1253;73194;-40
2023/12/03 02:49:08;;;;;;;20.40;13.30;;;;;;;0.95;86.87;97798.92;107618;1255;60336;-40
2023/12/03 02:51:34;;;;;;;17.10;12.40;;;;;;;1.00;87.16;97800.80;107629;1253;60461;-40
2023/12/03 02:54:01;;;;;;;18.30;12.60;;;;;;;1.03;87.55;97764.31;107722;1251;73790;-39
2023/12/03 02:56:28;;;;;;;17.80;12.20;;;;;;;1.07;87.53;97759.45;107668;1253;68022;-39
2023/12/03 02:58:55;;;;;;;19.90;12.70;;;;;;;1.13;87.45;97766.07;107601;1252;73341;-39
2023/12/03 03:01:22;;;;;;;19.60;13.10;;;;;;;1.25;87.10;97776.80;107589;1253;60919;-39
2023/12/03 03:03:49;;;;;;;18.40;13.10;;;;;;;1.32;87.04;97789.66;107654;1256;60451;-39
2023/12/03 03:06:15;;;;;;;19.20;13.20;;;;;;;1.36;86.66;97787.54;107642;1253;73822;-39
2023/12/03 03:08:42;;;;;;;23.60;13.90;;;;;;;1.34;86.31;97783.30;107665;1253;68113;-39
2023/12/03 03:11:09;;;;;;;20.90;14.00;;;;;;;1.30;86.19;97792.36;107668;1255;72111;-39
2023/12/03 03:13:36;;;;;;;21.00;13.00;;;;;;;1.30;86.32;97788.92;107628;1255;60979;-39
2023/12/03 03:16:03;;;;;;;18.30;13.10;;;;;;;1.40;85.75;97773.95;107626;1252;60463;-39
2023/12/03 03:18:30;;;;;;;18.60;13.10;;;;;;;1.50;85.64;97764.08;107714;1252;73953;-39
2023/12/03 03:21:01;;;;;;;24.50;13.20;;;;;;;1.56;85.73;97768.07;107723;1253;68113;-39
2023/12/03 03:23:28;;;;;;;20.80;13.50;;;;;;;1.62;85.75;97750.92;107655;1255;71711;-39
2023/12/03 03:25:55;;;;;;;20.30;14.00;;;;;;;1.65;85.39;97762.52;107666;1253;60428;-39
2023/12/03 03:28:22;;;;;;;21.80;13.50;;;;;;;1.65;85.14;97771.23;107636;1253;60460;-39
2023/12/03 03:30:49;;;;;;;22.40;13.70;;;;;;;1.72;84.79;97766.07;107790;1253;72892;-39
2023/12/03 03:33:15;;;;;;;21.20;13.80;;;;;;;1.80;84.33;97783.26;107672;1253;66833;-39
2023/12/03 03:35:42;;;;;;;21.80;14.20;;;;;;;1.78;84.07;97785.18;107642;1253;73101;-39
2023/12/03 03:38:09;;;;;;;22.90;14.20;;;;;;;1.74;84.21;97773.46;107632;1252;60322;-39
2023/12/03 03:40:36;;;;;;;23.60;14.90;;;;;;;1.70;84.13;97778.23;107652;1251;60920;-39
2023/12/03 03:43:03;;;;;;;20.90;13.60;;;;;;;1.58;84.18;97775.07;107653;1253;74309;-39
2023/12/03 03:45:30;;;;;;;19.80;13.50;;;;;;;1.68;83.76;97801.08;107607;1253;68410;-39
2023/12/03 03:47:57;;;;;;;21.50;14.40;;;;;;;1.69;83.39;97815.46;107638;1253;71281;-39
2023/12/03 03:50:24;;;;;;;27.60;15.00;;;;;;;1.63;83.52;97814.05;107619;1253;60342;-39
2023/12/03 03:52:50;;;;;;;22.20;14.30;;;;;;;1.54;83.70;97812.20;107610;1254;60452;-39
2023/12/03 03:55:17;;;;;;;26.30;15.40;;;;;;;1.47;83.90;97805.81;107639;1254;74624;-39
2023/12/03 03:57:43;;;;;;;25.00;14.50;;;;;;;1.42;84.17;97808.48;107617;1253;67982;-39
2023/12/03 04:00:11;;;;;;;22.70;14.20;;;;;;;1.45;84.37;97805.68;107762;1253;73239;-39
2023/12/03 04:02:38;;;;;;;23.00;13.70;;;;;;;1.52;84.21;97808.30;107674;1254;60540;-39
2023/12/03 04:05:06;;;;;;;23.00;13.90;;;;;;;1.52;84.36;97813.21;107649;1254;60472;-39
2023/12/03 04:07:33;;;;;;;17.50;12.20;;;;;;;1.49;84.61;97809.77;107712;1252;72358;-39
2023/12/03 04:10:00;;;;;;;26.40;14.40;;;;;;;1.39;84.66;97803.52;107664;1252;67090;-39
2023/12/03 04:12:27;;;;;;;20.00;13.50;;;;;;;1.35;85.00;97817.20;107623;1253;72099;-39
2023/12/03 04:14:54;;;;;;;21.30;14.30;;;;;;;1.39;85.05;97812.72;107658;1253;60990;-39
2023/12/03 04:17:20;;;;;;;23.20;14.40;;;;;;;1.46;85.29;97815.08;107630;1252;60451;-39
2023/12/03 04:19:47;;;;;;;21.50;13.20;;;;;;;1.47;85.51;97808.86;107670;1253;73928;-38
2023/12/03 04:22:13;;;;;;;24.00;14.70;;;;;;;1.45;85.60;97801.23;107633;1253;68201;-39
2023/12/03 04:24:40;;;;;;;22.40;13.60;;;;;;;1.40;85.76;97802.91;107615;1253;72951;-39
2023/12/03 04:27:07;;;;;;;21.30;13.10;;;;;;;1.35;85.77;97805.05;107648;1253;61097;-39
2023/12/03 04:29:34;;;;;;;18.80;12.60;;;;;;;1.40;85.53;97809.63;107692;1253;60420;-39
2023/12/03 04:32:00;;;;;;;19.30;13.30;;;;;;;1.41;85.97;97819.65;107667;1253;74352;-39
2023/12/03 04:34:27;;;;;;;20.90;13.20;;;;;;;1.36;86.12;97819.36;107622;1253;68541;-39
2023/12/03 04:36:54;;;;;;;20.10;12.00;;;;;;;1.31;86.59;97810.84;107644;1253;73104;-39
2023/12/03 04:39:20;;;;;;;17.80;11.90;;;;;;;1.37;86.70;97812.82;107738;1253;61590;-39
2023/12/03 04:41:47;;;;;;;18.80;12.20;;;;;;;1.44;86.67;97808.48;107641;1255;60339;-39
2023/12/03 04:44:14;;;;;;;17.60;11.70;;;;;;;1.47;87.00;97808.60;106934;1253;1003362;-39
2023/12/03 04:46:41;;;;;;;19.70;12.50;;;;;;;1.46;87.21;97809.89;107653;1256;67811;-39
2023/12/03 04:49:08;;;;;;;20.20;12.90;;;;;;;1.43;87.48;97804.02;107650;1252;73083;-39
2023/12/03 04:51:35;;;;;;;20.00;11.70;;;;;;;1.43;87.57;97806.53;107711;1252;60341;-39
2023/12/03 04:54:01;;;;;;;17.20;11.50;;;;;;;1.50;87.26;97809.10;107653;1253;60812;-39
2023/12/03 04:56:28;;;;;;;16.50;10.90;;;;;;;1.54;86.91;97810.45;107757;1253;73780;-39
2023/12/03 04:58:55;;;;;;;17.10;11.90;;;;;;;1.54;87.20;97809.74;107633;1255;68539;-39
2023/12/03 05:01:22;;;;;;;18.40;11.80;;;;;;;1.52;87.55;97805.26;106858;1253;1002565;-39
2023/12/03 05:03:48;;;;;;;17.10;11.20;;;;;;;1.51;87.81;97802.88;107631;1254;60304;-39
2023/12/03 05:06:15;;;;;;;15.00;10.30;;;;;;;1.53;87.82;97809.05;107742;1251;59992;-39
2023/12/03 05:08:42;;;;;;;15.50;10.50;;;;;;;1.58;87.55;97807.52;107664;1253;74286;-39
2023/12/03 05:11:09;;;;;;;15.40;10.40;;;;;;;1.58;87.67;97822.17;107656;1255;67516;-39
2023/12/03 05:13:36;;;;;;;15.20;10.70;;;;;;;1.53;88.01;97817.73;107665;1253;73241;-39
2023/12/03 05:16:06;;;;;;;17.20;10.80;;;;;;;1.48;88.31;97814.09;107627;1252;60495;-39
2023/12/03 05:18:33;;;;;;;13.70;9.00;;;;;;;1.50;88.55;97804.91;107707;1254;60294;-39
2023/12/03 05:21:01;;;;;;;12.90;9.70;;;;;;;1.56;88.47;97805.01;107661;1253;74201;-39
2023/12/03 05:23:28;;;;;;;14.40;10.00;;;;;;;1.54;88.94;97819.06;107700;1252;68261;-39
2023/12/03 05:25:56;;;;;;;15.70;10.40;;;;;;;1.48;89.37;97826.81;107686;1252;73223;-39
2023/12/03 05:28:23;;;;;;;14.80;9.30;;;;;;;1.44;89.31;97832.64;107664;1253;60940;-39
2023/12/03 05:30:50;;;;;;;12.50;8.40;;;;;;;1.46;89.53;97836.30;107649;1254;60118;-38
2023/12/03 05:33:17;;;;;;;16.30;10.30;;;;;;;1.47;89.66;97833.95;107677;1254;74093;-39
2023/12/03 05:35:44;;;;;;;19.30;11.50;;;;;;;1.43;89.93;97833.46;107756;1253;67997;-39
2023/12/03 05:38:10;;;;;;;16.10;10.30;;;;;;;1.39;90.15;97839.30;107610;1253;73227;-39
2023/12/03 05:40:37;;;;;;;15.50;10.50;;;;;;;1.41;90.01;97855.61;107626;1252;60264;-39
2023/12/03 05:43:03;;;;;;;17.80;11.00;;;;;;;1.44;90.02;97855.05;107612;1253;60409;-39
2023/12/03 05:45:30;;;;;;;15.00;10.40;;;;;;;1.41;90.45;97859.95;107642;1252;74558;-39
2023/12/03 05:47:57;;;;;;;15.00;10.10;;;;;;;1.35;90.73;97861.06;107621;1254;66802;-39
2023/12/03 05:50:24;;;;;;;17.20;10.30;;;;;;;1.38;90.83;97870.23;107666;1253;72263;-39
2023/12/03 05:52:51;;;;;;;14.50;10.20;;;;;;;1.43;90.96;97879.55;107757;1254;60293;-39
2023/12/03 05:55:18;;;;;;;13.60;9.30;;;;;;;1.40;91.28;97888.66;106889;1254;1002914;-39
2023/12/03 05:57:45;;;;;;;13.70;8.20;;;;;;;1.35;91.66;97902.02;107636;1253;74375;-39
2023/12/03 06:00:12;;;;;;;15.60;9.90;;;;;;;1.41;91.35;97910.83;107675;1253;67923;-38
2023/12/03 06:02:39;;;;;;;15.80;10.00;;;;;;;1.42;91.17;97908.86;107739;1251;72675;-39
2023/12/03 06:05:07;;;;;;;15.40;9.80;;;;;;;1.40;91.48;97922.33;107621;1254;60358;-39
2023/12/03 06:07:33;;;;;;;13.40;8.90;;;;;;;1.38;91.54;97929.42;107696;1253;60335;-39
2023/12/03 06:10:00;;;;;;;12.50;9.00;;;;;;;1.43;91.22;97932.41;107661;1255;74407;-39
2023/12/03 06:12:27;;;;;;;16.30;10.10;;;;;;;1.46;91.00;97935.48;107624;1256;68179;-38
2023/12/03 06:14:53;;;;;;;15.40;9.80;;;;;;;1.43;90.97;97940.27;107713;1254;73073;-38
2023/12/03 06:17:20;;;;;;;14.70;9.00;;;;;;;1.41;90.93;97948.13;107650;1256;61065;-38
2023/12/03 06:19:47;;;;;;;14.40;9.30;;;;;;;1.46;90.61;97950.27;107598;1251;60345;-38
2023/12/03 06:22:13;;;;;;;11.90;8.80;;;;;;;1.50;90.47;97952.15;107630;1254;74520;-38
2023/12/03 06:24:40;;;;;;;14.30;9.40;;;;;;;1.48;90.61;97954.68;107621;1254;68039;-38
2023/12/03 06:27:07;;;;;;;13.40;9.20;;;;;;;1.44;90.70;97958.83;107626;1254;72200;-39
2023/12/03 06:29:34;;;;;;;13.10;8.70;;;;;;;1.46;90.44;97964.94;107751;1255;60954;-39
2023/12/03 06:32:00;;;;;;;13.30;8.60;;;;;;;1.52;89.97;97968.39;107629;1254;60444;-39
2023/12/03 06:34:27;;;;;;;15.90;9.80;;;;;;;1.49;90.03;97972.57;107624;1254;74280;-40
2023/12/03 06:36:54;;;;;;;13.00;8.10;;;;;;;1.44;89.97;97977.77;107660;1253;68305;-39
2023/12/03 06:39:21;;;;;;;12.80;8.20;;;;;;;1.48;89.76;97982.92;107610;1254;73260;-39
2023/12/03 06:41:48;;;;;;;11.10;7.70;;;;;;;1.50;89.35;97983.61;107625;1256;60546;-39
2023/12/03 06:44:15;;;;;;;10.40;7.30;;;;;;;1.48;89.07;97982.84;107620;1253;59683;-39
2023/12/03 06:46:53;;;;;;;6.50;4.80;;;;;;;1.41;88.82;97975.66;107728;1253;74454;-40
2023/12/03 06:49:19;;;;;;;6.20;4.40;;;;;;;1.44;87.33;97975.91;107622;1253;68582;-39
2023/12/03 06:51:46;;;;;;;7.00;4.60;;;;;;;1.48;86.70;97977.34;107629;1255;73174;-40
2023/12/03 06:54:13;;;;;;;5.70;4.60;;;;;;;1.43;86.24;97988.80;107638;1256;60434;-39
2023/12/03 06:56:40;;;;;;;7.00;4.60;;;;;;;1.41;85.92;97999.55;107655;1256;60193;-39
2023/12/03 06:59:06;;;;;;;5.40;4.10;;;;;;;1.46;85.88;98007.81;107642;1255;73522;-40
2023/12/03 07:01:33;;;;;;;5.60;3.80;;;;;;;1.48;85.92;98014.66;107660;1256;68533;-39
2023/12/03 07:04:03;;;;;;;6.10;4.30;;;;;;;1.44;85.78;98012.63;107654;1254;72118;-39
2023/12/03 07:06:30;;;;;;;4.90;3.50;;;;;;;1.34;85.76;98012.60;107687;1255;60941;-40
2023/12/03 07:08:57;;;;;;;4.70;3.60;;;;;;;1.47;85.49;98020.65;107669;1256;60329;-39
2023/12/03 07:11:44;;;;;;;4.40;3.50;;;;;;;1.48;85.16;98030.38;107659;1256;73162;-39
2023/12/03 07:14:10;;;;;;;4.30;3.40;;;;;;;1.44;84.93;98039.46;107659;1254;66449;-39
2023/12/03 07:16:37;;;;;;;4.10;3.20;;;;;;;1.41;84.59;98041.66;107631;1255;73060;-39
2023/12/03 07:19:03;;;;;;;3.80;3.10;;;;;;;1.47;84.46;98046.15;107595;1256;61422;-40
2023/12/03 07:21:30;;;;;;;4.20;3.30;;;;;;;1.49;84.40;98054.91;107619;1256;60344;-40
2023/12/03 07:23:57;;;;;;;3.70;3.30;;;;;;;1.37;84.25;98049.69;107742;1254;73395;-39
2023/12/03 07:26:24;;;;;;;4.20;3.20;;;;;;;1.40;84.40;98065.36;107628;1254;67727;-40
2023/12/03 07:28:50;;;;;;;4.00;2.90;;;;;;;1.45;83.97;98067.66;107620;1256;73227;-39
2023/12/03 07:31:18;;;;;;;4.20;3.10;;;;;;;1.48;83.96;98074.33;107661;1256;60288;-39
2023/12/03 07:33:45;;;;;;;5.00;3.60;;;;;;;1.45;83.97;98085.30;107628;1256;60401;-39
2023/12/03 07:36:12;;;;;;;3.90;3.10;;;;;;;1.42;84.13;98086.25;107634;1257;73825;-39
2023/12/03 07:38:39;;;;;;;4.20;3.00;;;;;;;1.47;83.86;98091.31;107723;1255;66506;-39
2023/12/03 07:41:10;;;;;;;4.10;3.00;;;;;;;1.50;83.87;98102.09;107644;1256;73287;-39
2023/12/03 07:43:37;;;;;;;3.40;3.00;;;;;;;1.45;84.11;98104.90;107630;1254;60565;-39
2023/12/03 07:46:05;;;;;;;5.10;3.80;;;;;;;1.41;84.02;98105.36;107701;1255;60669;-39
2023/12/03 07:48:33;;;;;;;3.50;3.10;;;;;;;1.45;83.89;98108.34;107647;1254;73643;-39
2023/12/03 07:51:00;;;;;;;4.10;3.40;;;;;;;1.46;83.69;98110.60;107655;1254;66576;-38
2023/12/03 07:53:27;;;;;;;3.90;3.00;;;;;;;1.39;83.67;98113.25;107587;1256;73073;-39
2023/12/03 07:55:53;;;;;;;4.20;3.30;;;;;;;1.35;83.85;98118.44;107583;1256;61407;-40
2023/12/03 07:58:20;;;;;;;4.10;3.20;;;;;;;1.41;83.81;98124.49;107578;1253;60444;-39
2023/12/03 08:00:47;;;;;;;4.30;3.60;;;;;;;1.40;83.67;98132.34;107619;1257;74221;-39
2023/12/03 08:03:14;;;;;;;5.60;4.10;;;;;;;1.31;83.17;98136.69;107693;1255;67883;-39
2023/12/03 08:05:41;;;;;;;7.20;4.30;;;;;;;1.23;83.14;98147.18;107626;1258;73259;-39
2023/12/03 08:08:08;;;;;;;5.30;4.50;;;;;;;1.19;82.37;98151.08;107633;1256;60562;-40
2023/12/03 08:10:35;;;;;;;7.70;5.70;;;;;;;1.12;82.44;98159.65;107658;1254;60428;-39
2023/12/03 08:13:02;;;;;;;7.40;5.70;;;;;;;1.03;83.22;98162.17;107609;1254;74689;-40
2023/12/03 08:15:29;;;;;;;7.40;5.50;;;;;;;1.02;82.91;98162.12;107599;1257;68214;-39
2023/12/03 08:17:55;;;;;;;7.40;6.10;;;;;;;1.03;83.08;98174.50;107641;1254;73216;-39
2023/12/03 08:20:22;;;;;;;9.20;6.90;;;;;;;0.95;81.59;98173.81;107583;1256;60426;-39
2023/12/03 08:22:49;;;;;;;8.00;6.10;;;;;;;0.87;80.55;98184.89;107624;1253;60445;-39
2023/12/03 08:25:16;;;;;;;9.10;6.50;;;;;;;0.87;79.83;98182.23;107639;1254;72551;-40
2023/12/03 08:27:46;;;;;;;8.70;6.20;;;;;;;0.83;79.38;98190.16;107743;1256;68076;-39
2023/12/03 08:30:13;;;;;;;9.40;6.90;;;;;;;0.74;78.89;98184.94;107638;1253;72954;-40
2023/12/03 08:32:40;;;;;;;10.10;6.90;;;;;;;0.67;79.16;98195.18;107715;1254;60288;-39
2023/12/03 08:35:07;;;;;;;10.00;6.80;;;;;;;0.69;79.37;98202.57;107652;1253;60319;-39
2023/12/03 08:37:34;;;;;;;10.20;7.00;;;;;;;0.67;79.61;98213.38;107605;1257;73850;-40
2023/12/03 08:40:01;;;;;;;9.00;6.30;;;;;;;0.62;80.12;98227.71;107628;1257;67980;-40
2023/12/03 08:42:31;;;;;;;10.50;7.40;;;;;;;0.60;80.45;98229.95;107618;1254;73214;-40
2023/12/03 08:44:57;;;;;;;11.70;9.00;;;;;;;0.61;80.43;98251.57;107603;1256;60326;-40
2023/12/03 08:47:24;;;;;;;15.10;10.40;;;;;;;0.48;79.37;98243.71;107724;1254;60307;-40
2023/12/03 08:49:52;;;;;;;16.00;9.40;;;;;;;0.27;79.08;98248.20;107637;1254;72583;-40
2023/12/03 08:52:19;;;;;;;14.40;9.90;;;;;;;0.15;79.44;98256.09;107728;1254;66551;-40
2023/12/03 08:54:46;;;;;;;14.20;10.20;;;;;;;0.08;79.30;98257.17;107608;1256;73162;-40
2023/12/03 08:57:13;;;;;;;17.50;10.70;;;;;;;-0.03;79.80;98264.94;107614;1254;60338;-40
2023/12/03 08:59:40;;;;;;;14.20;10.20;;;;;;;-0.13;79.85;98272.69;107487;1256;194922;-39
2023/12/03 09:04:00;;;;;;;18.20;11.90;;;;;;;-0.19;79.83;98278.61;104139;1292;600683;-39
2023/12/03 09:06:28;;;;;;;17.70;11.30;;;;;;;-0.31;79.88;98278.44;105822;1267;1017114;-40
2023/12/03 09:08:56;;;;;;;16.90;11.40;;;;;;;-0.40;79.82;98280.48;106551;1272;59280;-40
2023/12/03 09:11:24;;;;;;;16.60;11.00;;;;;;;-0.40;80.12;98293.04;106606;1267;72224;-40
2023/12/03 09:13:51;;;;;;;19.00;11.30;;;;;;;-0.42;80.43;98298.58;106586;1271;66300;-40
2023/12/03 09:16:19;;;;;;;18.20;11.80;;;;;;;-0.50;80.29;98318.13;106542;1267;73110;-40
2023/12/03 09:18:47;;;;;;;17.00;10.70;;;;;;;-0.52;80.35;98324.23;106528;1267;120445;-39
2023/12/03 09:21:16;;;;;;;16.40;10.80;;;;;;;-0.47;80.41;98323.85;106637;1263;59254;-40
2023/12/03 09:23:44;;;;;;;17.10;12.60;;;;;;;-0.48;80.28;98324.42;106701;1263;72232;-40
2023/12/03 09:26:13;;;;;;;15.40;9.30;;;;;;;-0.53;80.40;98331.97;106645;1263;67655;-40
2023/12/03 09:28:41;;;;;;;18.10;11.80;;;;;;;-0.55;79.76;98333.25;106695;1266;71497;-40
2023/12/03 09:31:08;;;;;;;22.00;14.30;;;;;;;-0.64;78.89;98334.58;106665;1266;59739;-38
2023/12/03 09:33:36;;;;;;;21.10;13.00;;;;;;;-0.66;79.34;98351.21;106708;1264;59526;-38
2023/12/03 09:36:04;;;;;;;20.20;13.30;;;;;;;-0.76;79.67;98373.26;106785;1260;73063;-38
2023/12/03 09:38:32;;;;;;;19.90;13.50;;;;;;;-0.74;79.78;98381.61;106835;1263;67559;-39
2023/12/03 09:40:59;;;;;;;20.50;13.70;;;;;;;-0.75;80.26;98386.42;106717;1264;72659;-40
2023/12/03 09:43:28;;;;;;;21.10;13.50;;;;;;;-0.78;80.44;98388.87;106725;1260;59743;-39
2023/12/03 09:45:56;;;;;;;21.20;12.80;;;;;;;-0.80;80.23;98390.13;106776;1263;60038;-39
2023/12/03 09:48:23;;;;;;;21.40;13.20;;;;;;;-0.79;79.47;98399.95;106843;1261;73036;-39
2023/12/03 09:50:52;;;;;;;23.50;13.40;;;;;;;-0.84;79.09;98404.51;106819;1263;67923;-39
2023/12/03 09:53:20;;;;;;;19.90;13.50;;;;;;;-0.94;78.80;98401.20;106775;1263;71394;-39
2023/12/03 09:55:48;;;;;;;22.60;13.50;;;;;;;-0.97;78.99;98420.38;106779;1263;59676;-39
2023/12/03 09:58:16;;;;;;;20.10;13.30;;;;;;;-0.92;79.31;98432.92;106711;1261;60095;-39
2023/12/03 10:00:43;;;;;;;22.40;13.00;;;;;;;-0.96;78.89;98437.91;106819;1260;71802;-39
2023/12/03 10:03:11;;;;;;;19.00;12.30;;;;;;;-1.01;79.07;98441.30;106816;1263;66982;-39
2023/12/03 10:05:38;;;;;;;18.50;12.00;;;;;;;-1.00;78.76;98442.18;106824;1263;73066;-39
2023/12/03 10:08:06;;;;;;;18.70;12.60;;;;;;;-0.97;78.30;98440.74;106792;1260;59548;-39
2023/12/03 10:10:34;;;;;;;18.50;12.00;;;;;;;-1.01;78.19;98445.50;106706;1262;60159;-39
2023/12/03 10:13:02;;;;;;;20.30;11.90;;;;;;;-1.07;77.64;98449.06;106783;1261;73024;-39
2023/12/03 10:15:29;;;;;;;18.90;11.50;;;;;;;-1.05;77.66;98456.52;106782;1261;67920;-39
2023/12/03 10:17:57;;;;;;;17.10;11.30;;;;;;;-0.99;77.54;98462.69;106775;1263;72678;-39
2023/12/03 10:20:26;;;;;;;20.20;12.70;;;;;;;-1.02;77.62;98462.48;106810;1263;59628;-39
2023/12/03 10:23:03;;;;;;;17.60;11.30;;;;;;;-1.06;77.85;98459.84;106861;1262;59776;-39
2023/12/03 10:25:32;;;;;;;15.70;10.30;;;;;;;-1.08;77.69;98459.89;106861;1261;71798;-40
2023/12/03 10:28:01;;;;;;;19.80;12.80;;;;;;;-1.09;77.43;98457.26;106810;1263;68360;-39
2023/12/03 10:30:30;;;;;;;16.60;10.50;;;;;;;-1.04;77.48;98473.30;106047;1268;1003656;-40
2023/12/03 10:32:57;;;;;;;20.20;12.20;;;;;;;-1.09;77.52;98476.34;106799;1263;59540;-39
2023/12/03 10:35:27;;;;;;;16.60;10.50;;;;;;;-1.11;77.29;98485.64;106810;1264;59256;-39
2023/12/03 10:37:54;;;;;;;15.10;10.00;;;;;;;-1.05;76.66;98483.43;106788;1262;71720;-40
2023/12/03 10:40:22;;;;;;;15.30;9.70;;;;;;;-0.98;75.92;98481.29;106838;1263;66280;-40
2023/12/03 10:42:49;;;;;;;14.40;9.80;;;;;;;-1.00;74.94;98487.81;106789;1263;72680;-38
2023/12/03 10:45:17;;;;;;;12.20;8.60;;;;;;;-1.04;73.89;98480.48;106781;1269;59775;-38
2023/12/03 10:47:44;;;;;;;13.40;8.40;;;;;;;-1.06;73.44;98486.80;106793;1264;59547;-39
2023/12/03 10:50:13;;;;;;;13.20;8.10;;;;;;;-1.04;72.71;98504.15;106764;1263;73075;-38
2023/12/03 10:52:41;;;;;;;11.70;7.80;;;;;;;-0.96;72.76;98514.59;106806;1262;67913;-39
2023/12/03 10:55:09;;;;;;;11.60;7.70;;;;;;;-0.96;72.59;98525.70;106819;1263;73043;-39
2023/12/03 10:58:02;;;;;;;12.80;7.90;;;;;;;-1.00;71.66;98527.77;106820;1262;60412;-39
2023/12/03 11:00:35;;;;;;;11.40;8.00;;;;;;;-1.03;71.81;98534.67;106853;1260;59656;-39
2023/12/03 11:03:06;;;;;;;10.60;7.30;;;;;;;-1.02;72.14;98543.16;106874;1263;75348;-39
2023/12/03 11:05:40;;;;;;;11.70;7.70;;;;;;;-0.94;71.05;98543.86;106807;1264;67921;-39
2023/12/03 11:08:07;;;;;;;10.20;7.30;;;;;;;-0.91;69.78;98547.89;106904;1263;71472;-40
2023/12/03 11:10:35;;;;;;;10.60;7.40;;;;;;;-0.94;69.25;98555.26;106850;1267;59932;-39
2023/12/03 11:13:03;;;;;;;11.90;7.70;;;;;;;-0.98;70.00;98563.59;106723;1269;60986;-38
2023/12/03 11:15:30;;;;;;;13.20;8.40;;;;;;;-1.04;70.16;98567.52;106835;1263;72197;-38
2023/12/03 11:17:58;;;;;;;12.90;8.50;;;;;;;-1.10;69.88;98570.00;106807;1263;67848;-38
2023/12/03 11:20:33;;;;;;;10.80;8.00;;;;;;;-1.05;69.89;98581.79;106782;1264;73097;-38